Dades meteomassalio
Diari Summary for Juny 18, 2017 Units:  Metric    English   Both
« Previous Day
Next Day »
Diari Semanal Mensual Anual Personalitzat
  Maxima: Minima: Mijana:
Temperatura: 34.8 °C 19.0 °C 27.9 °C
Rosada: 18.4 °C 13.0 °C 16.3 °C
Humitat: 77 % 33 % 52 %
Velocitat del vent: 33.3 km/h 0.0 km/h 10.4 km/h
Racha vent: 33.3 km/h - -
Vent:- - ESE
Pressio: 1015.1 hPa 1011.1 hPa -
Pluja: 0.0 mm    
Historical Graphs
 
 
Tabular Data for Juny 18, 2017
Time Temperature Dew Point Pressure Wind Wind Speed Wind Gust Humidity Rainfall Rate (Hourly) solar Conditions
00:03 26.9 °C 16.8 °C 1013.4 hPa Calm     54 % 0.0 mm 0.0 W/m2 CLR
00:08 26.8 °C 16.7 °C 1013.4 hPa Calm     54 % 0.0 mm 0.0 W/m2 CLR
00:13 26.7 °C 16.7 °C 1013.4 hPa Calm     54 % 0.0 mm 0.0 W/m2 CLR
00:18 26.7 °C 16.6 °C 1013.4 hPa Calm     54 % 0.0 mm 0.0 W/m2 CLR
00:23 26.6 °C 16.8 °C 1013.4 hPa Calm     55 % 0.0 mm 0.0 W/m2 CLR
00:28 26.4 °C 16.6 °C 1013.4 hPa Calm     55 % 0.0 mm 0.0 W/m2 CLR
00:33 26.3 °C 16.6 °C 1013.8 hPa Calm     55 % 0.0 mm 0.0 W/m2 CLR
00:38 26.3 °C 16.8 °C 1013.4 hPa Calm     56 % 0.0 mm 0.0 W/m2 CLR
00:43 26.3 °C 16.8 °C 1013.8 hPa Calm     56 % 0.0 mm 0.0 W/m2 CLR
00:48 26.1 °C 16.9 °C 1013.4 hPa Calm     57 % 0.0 mm 0.0 W/m2 CLR
00:53 25.8 °C 16.7 °C 1013.4 hPa Calm     57 % 0.0 mm 0.0 W/m2 CLR
00:58 25.7 °C 16.8 °C 1013.4 hPa Calm     58 % 0.0 mm 0.0 W/m2 CLR
01:03 25.6 °C 16.7 °C 1013.4 hPa Calm     58 % 0.0 mm 0.0 W/m2 CLR
01:08 25.6 °C 16.7 °C 1013.4 hPa Calm     58 % 0.0 mm 0.0 W/m2 CLR
01:13 25.6 °C 16.7 °C 1013.4 hPa Calm     58 % 0.0 mm 0.0 W/m2 CLR
01:18 25.5 °C 16.6 °C 1013.4 hPa Calm     58 % 0.0 mm 0.0 W/m2 CLR
01:23 25.4 °C 16.6 °C 1013.4 hPa Calm     58 % 0.0 mm 0.0 W/m2 CLR
01:28 25.3 °C 16.7 °C 1013.4 hPa Calm     59 % 0.0 mm 0.0 W/m2 CLR
01:33 25.3 °C 16.7 °C 1013.4 hPa Calm     59 % 0.0 mm 0.0 W/m2 CLR
01:35 25.3 °C 16.7 °C 1013.4 hPa Calm     59 % 0.0 mm 0.0 W/m2 CLR
01:40 25.1 °C 16.6 °C 1013.1 hPa Calm     59 % 0.0 mm 0.0 W/m2 CLR
01:45 24.9 °C 16.6 °C 1013.1 hPa Calm     60 % 0.0 mm 0.0 W/m2 CLR
01:50 24.7 °C 16.7 °C 1013.4 hPa Calm     61 % 0.0 mm 0.0 W/m2 CLR
01:55 24.4 °C 16.6 °C 1013.8 hPa North 13.0 km/h 13.0 km/h 62 % 0.0 mm 0.0 W/m2 CLR
02:00 24.2 °C 16.4 °C 1013.8 hPa Calm     62 % 0.0 mm 0.0 W/m2 CLR
02:05 24.1 °C 16.6 °C 1013.8 hPa Calm     63 % 0.0 mm 0.0 W/m2 CLR
02:10 23.9 °C 17.2 °C 1013.8 hPa Calm     66 % 0.0 mm 0.0 W/m2 CLR
02:15 23.8 °C 17.6 °C 1013.8 hPa Calm     68 % 0.0 mm 0.0 W/m2 CLR
02:20 23.7 °C 17.7 °C 1013.8 hPa Calm     69 % 0.0 mm 0.0 W/m2 CLR
02:25 23.6 °C 18.1 °C 1013.8 hPa Calm     71 % 0.0 mm 0.0 W/m2 CLR
02:30 23.5 °C 17.9 °C 1013.8 hPa Calm     71 % 0.0 mm 0.0 W/m2 CLR
02:35 23.3 °C 17.8 °C 1013.8 hPa Calm     71 % 0.0 mm 0.0 W/m2 CLR
02:40 23.1 °C 17.6 °C 1013.8 hPa Calm     71 % 0.0 mm 0.0 W/m2 CLR
02:45 22.8 °C 17.7 °C 1013.8 hPa Calm     73 % 0.0 mm 0.0 W/m2 CLR
02:50 22.7 °C 17.8 °C 1013.8 hPa Calm     74 % 0.0 mm 0.0 W/m2 CLR
02:55 22.7 °C 17.6 °C 1013.4 hPa Calm     73 % 0.0 mm 0.0 W/m2 CLR
03:00 22.6 °C 17.3 °C 1013.8 hPa Calm     72 % 0.0 mm 0.0 W/m2 CLR
03:05 22.4 °C 17.4 °C 1013.8 hPa Calm     73 % 0.0 mm 0.0 W/m2 CLR
03:10 22.3 °C 17.4 °C 1013.4 hPa Calm     74 % 0.0 mm 0.0 W/m2 CLR
03:15 22.2 °C 17.3 °C 1013.4 hPa Calm     74 % 0.0 mm 0.0 W/m2 CLR
03:20 22.0 °C 17.4 °C 1013.4 hPa Calm     75 % 0.0 mm 0.0 W/m2 CLR
03:25 21.8 °C 17.2 °C 1013.8 hPa Calm     75 % 0.0 mm 0.0 W/m2 CLR
03:30 21.6 °C 17.0 °C 1013.8 hPa Calm     75 % 0.0 mm 0.0 W/m2 CLR
03:35 21.5 °C 17.3 °C 1013.8 hPa Calm     77 % 0.0 mm 0.0 W/m2 CLR
03:40 21.4 °C 16.6 °C 1013.8 hPa Calm     74 % 0.0 mm 0.0 W/m2 CLR
03:45 21.4 °C 16.8 °C 1013.8 hPa Calm     75 % 0.0 mm 0.0 W/m2 CLR
03:46 21.3 °C 16.7 °C 1013.8 hPa Calm     75 % 0.0 mm 0.0 W/m2 CLR
03:51 21.3 °C 16.7 °C 1013.8 hPa Calm     75 % 0.0 mm 0.0 W/m2 CLR
03:56 21.2 °C 16.6 °C 1013.8 hPa Calm     75 % 0.0 mm 0.0 W/m2 CLR
04:01 21.1 °C 16.7 °C 1013.8 hPa Calm     76 % 0.0 mm 0.0 W/m2 CLR
04:06 20.9 °C 16.3 °C 1013.8 hPa Calm     75 % 0.0 mm 0.0 W/m2 CLR
04:11 20.8 °C 16.2 °C 1013.8 hPa Calm     75 % 0.0 mm 0.0 W/m2 CLR
04:16 20.7 °C 16.1 °C 1013.8 hPa Calm     75 % 0.0 mm 0.0 W/m2 CLR
04:21 20.6 °C 16.0 °C 1013.8 hPa Calm     75 % 0.0 mm 0.0 W/m2 CLR
04:26 20.5 °C 15.7 °C 1013.8 hPa Calm     74 % 0.0 mm 0.0 W/m2 CLR
04:31 20.4 °C 15.7 °C 1013.8 hPa Calm     74 % 0.0 mm 0.0 W/m2 CLR
04:36 20.3 °C 15.6 °C 1013.8 hPa Calm     74 % 0.0 mm 0.0 W/m2 CLR
04:41 20.2 °C 15.7 °C 1013.8 hPa Calm     75 % 0.0 mm 0.0 W/m2 CLR
04:46 20.2 °C 15.6 °C 1013.8 hPa Calm     75 % 0.0 mm 0.0 W/m2 CLR
04:51 20.1 °C 15.6 °C 1013.8 hPa Calm     75 % 0.0 mm 0.0 W/m2 CLR
04:56 20.0 °C 15.7 °C 1013.8 hPa Calm     76 % 0.0 mm 0.0 W/m2 CLR
05:01 19.9 °C 15.6 °C 1013.8 hPa Calm     76 % 0.0 mm 0.0 W/m2 CLR
05:06 19.8 °C 15.5 °C 1013.8 hPa Calm     76 % 0.0 mm 0.0 W/m2 CLR
05:11 19.8 °C 15.4 °C 1013.8 hPa Calm     76 % 0.0 mm 0.0 W/m2 CLR
05:16 19.8 °C 15.4 °C 1013.8 hPa Calm     76 % 0.0 mm 0.0 W/m2 CLR
05:21 19.8 °C 15.5 °C 1013.8 hPa Calm     76 % 0.0 mm 0.0 W/m2 CLR
05:26 19.8 °C 15.4 °C 1013.8 hPa Calm     76 % 0.0 mm 0.0 W/m2 CLR
05:31 19.8 °C 15.4 °C 1013.8 hPa Calm     76 % 0.0 mm 0.0 W/m2 CLR
05:36 19.8 °C 15.2 °C 1013.8 hPa Calm     75 % 0.0 mm 0.0 W/m2 CLR
05:41 19.7 °C 15.4 °C 1013.8 hPa Calm     76 % 0.0 mm 0.0 W/m2 CLR
05:46 19.7 °C 15.3 °C 1013.8 hPa Calm     76 % 0.0 mm 0.0 W/m2 CLR
05:51 19.6 °C 15.3 °C 1013.8 hPa Calm     76 % 0.0 mm 0.0 W/m2 CLR
05:56 19.6 °C 15.3 °C 1013.8 hPa Calm     76 % 0.0 mm 0.0 W/m2 CLR
06:01 19.7 °C 15.3 °C 1013.8 hPa Calm     76 % 0.0 mm 0.0 W/m2 CLR
06:06 19.7 °C 15.1 °C 1013.8 hPa Calm     75 % 0.0 mm 0.0 W/m2 CLR
06:11 19.4 °C 15.1 °C 1014.1 hPa Calm     76 % 0.0 mm 0.0 W/m2 CLR
06:16 19.4 °C 15.1 °C 1014.1 hPa Calm     76 % 0.0 mm 0.0 W/m2 OVC
06:21 19.3 °C 15.0 °C 1014.1 hPa Calm     76 % 0.0 mm 0.0 W/m2 OVC
06:26 19.3 °C 15.2 °C 1014.1 hPa Calm     77 % 0.0 mm 0.0 W/m2 OVC
06:31 19.2 °C 15.1 °C 1013.8 hPa Calm     77 % 0.0 mm 5.0 W/m2 OVC
06:36 19.1 °C 15.0 °C 1013.8 hPa Calm     77 % 0.0 mm 9.0 W/m2 BKN
06:41 19.1 °C 15.0 °C 1013.8 hPa Calm     77 % 0.0 mm 11.0 W/m2 BKN
06:46 19.1 °C 14.9 °C 1014.1 hPa Calm     77 % 0.0 mm 14.0 W/m2 BKN
06:51 19.0 °C 14.9 °C 1014.1 hPa Calm     77 % 0.0 mm 16.0 W/m2 BKN
06:56 19.0 °C 14.9 °C 1014.1 hPa Calm     77 % 0.0 mm 19.0 W/m2 BKN
07:01 19.0 °C 14.9 °C 1014.1 hPa Calm     77 % 0.0 mm 21.0 W/m2 BKN
07:06 19.0 °C 14.9 °C 1014.1 hPa Calm     77 % 0.0 mm 32.0 W/m2 BKN
07:11 19.1 °C 15.0 °C 1014.1 hPa Calm     77 % 0.0 mm 39.0 W/m2 BKN
07:16 19.3 °C 15.2 °C 1014.1 hPa Calm     77 % 0.0 mm 49.0 W/m2 SCT
07:21 19.4 °C 15.1 °C 1014.1 hPa Calm     76 % 0.0 mm 60.0 W/m2 SCT
07:26 19.7 °C 15.3 °C 1014.1 hPa Calm     76 % 0.0 mm 72.0 W/m2 FEW
07:31 19.8 °C 15.2 °C 1014.1 hPa Calm     75 % 0.0 mm 84.0 W/m2 FEW
07:36 19.9 °C 15.4 °C 1014.1 hPa Calm     75 % 0.0 mm 98.0 W/m2 FEW
07:41 20.2 °C 15.4 °C 1014.1 hPa Calm     74 % 0.0 mm 113.0 W/m2 CLR
07:46 20.6 °C 15.8 °C 1014.1 hPa Calm     74 % 0.0 mm 128.0 W/m2 CLR
07:51 20.8 °C 15.6 °C 1014.1 hPa Calm     72 % 0.0 mm 142.0 W/m2 CLR
07:57 21.1 °C 15.7 °C 1014.1 hPa Calm     71 % 0.0 mm 158.0 W/m2 CLR
08:02 21.4 °C 15.9 °C 1014.1 hPa Calm     71 % 0.0 mm 179.0 W/m2 CLR
08:07 21.9 °C 15.9 °C 1014.1 hPa Calm     69 % 0.0 mm 195.0 W/m2 CLR
08:12 22.3 °C 16.1 °C 1014.1 hPa Calm     68 % 0.0 mm 209.0 W/m2 CLR
08:17 22.7 °C 16.1 °C 1014.1 hPa Calm     66 % 0.0 mm 223.0 W/m2 CLR
08:22 23.1 °C 16.2 °C 1014.1 hPa Calm     65 % 0.0 mm 237.0 W/m2 CLR
08:27 23.4 °C 16.2 °C 1014.1 hPa Calm     64 % 0.0 mm 255.0 W/m2 CLR
08:32 23.7 °C 16.3 °C 1014.1 hPa Calm     63 % 0.0 mm 269.0 W/m2 CLR
08:37 24.2 °C 16.4 °C 1014.1 hPa Calm     62 % 0.0 mm 285.0 W/m2 CLR
08:42 24.5 °C 16.2 °C 1014.1 hPa Calm     60 % 0.0 mm 302.0 W/m2 CLR
08:47 24.8 °C 16.5 °C 1014.1 hPa Calm     60 % 0.0 mm 316.0 W/m2 CLR
08:52 25.1 °C 16.5 °C 1014.1 hPa Calm     59 % 0.0 mm 332.0 W/m2 CLR
08:57 25.3 °C 16.4 °C 1014.1 hPa Calm     58 % 0.0 mm 346.0 W/m2 CLR
09:02 25.6 °C 16.7 °C 1014.1 hPa Calm     58 % 0.0 mm 364.0 W/m2 CLR
09:07 26.1 °C 16.6 °C 1014.1 hPa Calm     56 % 0.0 mm 380.0 W/m2 CLR
09:12 26.6 °C 16.5 °C 1014.1 hPa Calm     54 % 0.0 mm 394.0 W/m2 CLR
09:17 26.9 °C 16.6 °C 1014.1 hPa Calm     53 % 0.0 mm 410.0 W/m2 CLR
09:22 27.2 °C 16.4 °C 1014.1 hPa Calm     52 % 0.0 mm 427.0 W/m2 CLR
09:27 27.3 °C 16.3 °C 1014.1 hPa Calm     51 % 0.0 mm 441.0 W/m2 CLR
09:32 27.5 °C 16.2 °C 1014.1 hPa Calm     50 % 0.0 mm 457.0 W/m2 CLR
09:37 27.5 °C 16.2 °C 1014.1 hPa Calm     50 % 0.0 mm 471.0 W/m2 CLR
09:42 27.6 °C 16.2 °C 1014.1 hPa ENE 9.3 km/h 9.3 km/h 50 % 0.0 mm 485.0 W/m2 CLR
09:47 27.8 °C 16.4 °C 1014.1 hPa NE 7.4 km/h 7.4 km/h 50 % 0.0 mm 501.0 W/m2 CLR
09:52 28.0 °C 16.6 °C 1014.1 hPa ENE 7.4 km/h 7.4 km/h 50 % 0.0 mm 517.0 W/m2 CLR
09:57 28.1 °C 16.4 °C 1013.8 hPa ENE 3.7 km/h 3.7 km/h 49 % 0.0 mm 531.0 W/m2 CLR
10:02 28.3 °C 16.6 °C 1014.1 hPa ENE 1.9 km/h   49 % 0.0 mm 545.0 W/m2 CLR
10:07 28.5 °C 16.1 °C 1013.8 hPa ENE 9.3 km/h 9.3 km/h 47 % 0.0 mm 563.0 W/m2 CLR
10:12 28.7 °C 16.3 °C 1013.8 hPa ENE 6.4 km/h 6.4 km/h 47 % 0.0 mm 575.0 W/m2 CLR
10:17 28.7 °C 15.9 °C 1013.8 hPa ENE 4.8 km/h 4.8 km/h 46 % 0.0 mm 589.0 W/m2 CLR
10:22 28.7 °C 15.9 °C 1013.8 hPa ENE 8.0 km/h 8.0 km/h 46 % 0.0 mm 603.0 W/m2 CLR
10:27 28.9 °C 15.8 °C 1013.8 hPa ENE 5.6 km/h 5.6 km/h 45 % 0.0 mm 615.0 W/m2 CLR
10:32 29.2 °C 15.7 °C 1013.8 hPa Calm     44 % 0.0 mm 631.0 W/m2 CLR
10:37 29.6 °C 15.7 °C 1013.8 hPa ENE 1.9 km/h 1.9 km/h 43 % 0.0 mm 642.0 W/m2 CLR
10:42 29.7 °C 16.1 °C 1013.8 hPa ENE 9.3 km/h 9.3 km/h 44 % 0.0 mm 654.0 W/m2 CLR
10:47 29.7 °C 16.2 °C 1013.8 hPa ENE 9.3 km/h 9.3 km/h 44 % 0.0 mm 668.0 W/m2 CLR
10:52 29.8 °C 16.2 °C 1013.4 hPa NE 11.1 km/h 11.1 km/h 44 % 0.0 mm 680.0 W/m2 CLR
10:57 29.8 °C 16.3 °C 1013.4 hPa ENE 9.3 km/h 9.3 km/h 44 % 0.0 mm 693.0 W/m2 CLR
11:02 29.9 °C 16.0 °C 1013.4 hPa ENE 14.8 km/h 14.8 km/h 43 % 0.0 mm 703.0 W/m2 CLR
11:07 30.0 °C 16.1 °C 1013.4 hPa ENE 14.8 km/h 14.8 km/h 43 % 0.0 mm 715.0 W/m2 CLR
11:12 30.1 °C 16.2 °C 1013.4 hPa Calm     43 % 0.0 mm 726.0 W/m2 CLR
11:17 30.3 °C 16.0 °C 1013.4 hPa NNE 9.3 km/h 9.3 km/h 42 % 0.0 mm 737.0 W/m2 CLR
11:22 30.6 °C 15.8 °C 1013.4 hPa NNW 13.0 km/h 13.0 km/h 41 % 0.0 mm 745.0 W/m2 CLR
11:27 30.8 °C 15.7 °C 1013.4 hPa North 11.1 km/h 11.1 km/h 40 % 0.0 mm 758.0 W/m2 CLR
11:32 30.8 °C 16.1 °C 1013.4 hPa NE 16.1 km/h 16.1 km/h 41 % 0.0 mm 768.0 W/m2 CLR
11:37 30.9 °C 15.4 °C 1013.4 hPa NNE 16.7 km/h 16.7 km/h 39 % 0.0 mm 779.0 W/m2 CLR
11:42 31.1 °C 15.9 °C 1013.1 hPa North 11.1 km/h 11.1 km/h 40 % 0.0 mm 788.0 W/m2 CLR
11:47 31.3 °C 15.7 °C 1013.1 hPa NNE 13.0 km/h 13.0 km/h 39 % 0.0 mm 796.0 W/m2 CLR
11:52 31.5 °C 15.9 °C 1013.1 hPa NNE 13.0 km/h 13.0 km/h 39 % 0.0 mm 807.0 W/m2 CLR
11:57 31.7 °C 16.1 °C 1013.1 hPa NNE 9.3 km/h 9.3 km/h 39 % 0.0 mm 814.0 W/m2 CLR
12:02 32.1 °C 16.4 °C 1013.1 hPa NE 18.5 km/h 18.5 km/h 39 % 0.0 mm 824.0 W/m2 CLR
12:07 32.5 °C 16.3 °C 1013.1 hPa Calm     38 % 0.0 mm 831.0 W/m2 CLR
12:12 32.8 °C 16.6 °C 1013.1 hPa NE 12.9 km/h 12.9 km/h 38 % 0.0 mm 838.0 W/m2 CLR
12:17 32.9 °C 16.3 °C 1013.1 hPa NNE 14.8 km/h 14.8 km/h 37 % 0.0 mm 846.0 W/m2 CLR
12:22 33.0 °C 16.4 °C 1013.1 hPa ENE 16.7 km/h 16.7 km/h 37 % 0.0 mm 856.0 W/m2 CLR
12:27 33.0 °C 16.4 °C 1012.8 hPa NNE 14.8 km/h 14.8 km/h 37 % 0.0 mm 861.0 W/m2 CLR
12:32 33.2 °C 16.9 °C 1012.8 hPa East 9.3 km/h 9.3 km/h 38 % 0.0 mm 867.0 W/m2 CLR
12:37 33.3 °C 16.7 °C 1012.8 hPa NE 18.5 km/h 18.5 km/h 37 % 0.0 mm 875.0 W/m2 CLR
12:42 33.5 °C 16.8 °C 1012.8 hPa NE 17.7 km/h 17.7 km/h 37 % 0.0 mm 879.0 W/m2 CLR
12:47 33.8 °C 16.6 °C 1012.8 hPa East 18.5 km/h 18.5 km/h 36 % 0.0 mm 888.0 W/m2 CLR
12:52 33.8 °C 15.7 °C 1012.8 hPa ENE 14.8 km/h 14.8 km/h 34 % 0.0 mm 893.0 W/m2 CLR
12:57 33.8 °C 15.8 °C 1012.8 hPa ENE 8.0 km/h 8.0 km/h 34 % 0.0 mm 896.0 W/m2 CLR
13:02 33.8 °C 15.7 °C 1012.4 hPa Calm     34 % 0.0 mm 898.0 W/m2 CLR
13:07 33.9 °C 15.4 °C 1012.4 hPa ESE 20.9 km/h 20.9 km/h 33 % 0.0 mm 909.0 W/m2 CLR
13:12 33.9 °C 15.9 °C 1012.4 hPa NE 11.1 km/h 11.1 km/h 34 % 0.0 mm 911.0 W/m2 CLR
13:17 34.1 °C 15.6 °C 1012.4 hPa ENE 16.7 km/h 16.7 km/h 33 % 0.0 mm 914.0 W/m2 CLR
13:22 34.3 °C 16.2 °C 1012.4 hPa ESE 17.7 km/h 17.7 km/h 34 % 0.0 mm 918.0 W/m2 CLR
13:27 34.4 °C 15.8 °C 1012.1 hPa East 9.7 km/h 9.7 km/h 33 % 0.0 mm 919.0 W/m2 CLR
13:32 34.4 °C 16.7 °C 1012.1 hPa East 18.5 km/h 18.5 km/h 35 % 0.0 mm 921.0 W/m2 CLR
13:37 34.4 °C 16.3 °C 1012.1 hPa ESE 18.5 km/h 18.5 km/h 34 % 0.0 mm 925.0 W/m2 CLR
13:42 34.4 °C 16.8 °C 1012.1 hPa ENE 22.2 km/h 22.2 km/h 35 % 0.0 mm 921.0 W/m2 CLR
13:43 34.4 °C 16.8 °C 1012.1 hPa ENE 22.2 km/h 22.2 km/h 35 % 0.0 mm 923.0 W/m2 CLR
13:48 34.3 °C 17.1 °C 1012.1 hPa ENE 11.3 km/h 11.3 km/h 36 % 0.0 mm 921.0 W/m2 CLR
13:53 34.6 °C 17.3 °C 1012.1 hPa ENE 13.0 km/h 13.0 km/h 36 % 0.0 mm 919.0 W/m2 CLR
13:58 34.7 °C 17.4 °C 1012.1 hPa SE 18.5 km/h 18.5 km/h 36 % 0.0 mm 925.0 W/m2 CLR
14:03 34.8 °C 17.1 °C 1012.1 hPa ESE 25.9 km/h 25.9 km/h 35 % 0.0 mm 923.0 W/m2 CLR
14:08 34.4 °C 17.6 °C 1012.1 hPa East 29.6 km/h 29.6 km/h 37 % 0.0 mm 923.0 W/m2 CLR
14:13 34.2 °C 17.4 °C 1011.7 hPa ENE 24.1 km/h 24.1 km/h 37 % 0.0 mm 923.0 W/m2 CLR
14:18 34.2 °C 17.9 °C 1011.7 hPa East 22.2 km/h 22.2 km/h 38 % 0.0 mm 923.0 W/m2 CLR
14:23 34.3 °C 17.5 °C 1011.7 hPa ESE 31.5 km/h 31.5 km/h 37 % 0.0 mm 926.0 W/m2 CLR
14:28 34.3 °C 17.1 °C 1011.7 hPa ESE 20.4 km/h 20.4 km/h 36 % 0.0 mm 919.0 W/m2 CLR
14:33 34.4 °C 17.2 °C 1011.7 hPa SE 14.8 km/h 14.8 km/h 36 % 0.0 mm 921.0 W/m2 CLR
14:38 34.4 °C 18.4 °C 1011.4 hPa ESE 18.5 km/h 18.5 km/h 39 % 0.0 mm 919.0 W/m2 CLR
14:43 34.4 °C 16.8 °C 1011.4 hPa ESE 20.4 km/h 20.4 km/h 35 % 0.0 mm 918.0 W/m2 CLR
14:48 34.7 °C 17.4 °C 1011.4 hPa SE 31.5 km/h 31.5 km/h 36 % 0.0 mm 909.0 W/m2 CLR
14:53 34.6 °C 16.9 °C 1011.4 hPa SE 20.4 km/h 20.4 km/h 35 % 0.0 mm 911.0 W/m2 CLR
14:58 34.4 °C 17.2 °C 1011.1 hPa SSE 31.5 km/h 31.5 km/h 36 % 0.0 mm 905.0 W/m2 CLR
14:59 34.4 °C 17.2 °C 1011.4 hPa SE 29.6 km/h 29.6 km/h 36 % 0.0 mm 905.0 W/m2 CLR
15:04 34.7 °C 17.0 °C 1011.1 hPa SSE 22.2 km/h 22.2 km/h 35 % 0.0 mm 904.0 W/m2 CLR
15:09 34.8 °C 17.5 °C 1011.4 hPa SE 27.8 km/h 27.8 km/h 36 % 0.0 mm 895.0 W/m2 CLR
15:14 34.8 °C 17.5 °C 1011.1 hPa SSE 27.8 km/h 27.8 km/h 36 % 0.0 mm 891.0 W/m2 CLR
15:19 34.6 °C 17.3 °C 1011.4 hPa SE 24.1 km/h 24.1 km/h 36 % 0.0 mm 886.0 W/m2 CLR
15:24 34.7 °C 17.4 °C 1011.1 hPa ESE 20.4 km/h 20.4 km/h 36 % 0.0 mm 879.0 W/m2 CLR
15:29 34.8 °C 17.6 °C 1011.1 hPa SSE 19.3 km/h 19.3 km/h 36 % 0.0 mm 874.0 W/m2 CLR
15:34 34.8 °C 17.5 °C 1011.1 hPa South 27.8 km/h 27.8 km/h 36 % 0.0 mm 870.0 W/m2 CLR
15:39 34.8 °C 17.5 °C 1011.1 hPa SE 25.9 km/h 25.9 km/h 36 % 0.0 mm 863.0 W/m2 CLR
15:44 34.5 °C 17.7 °C 1011.1 hPa SE 24.1 km/h 24.1 km/h 37 % 0.0 mm 858.0 W/m2 CLR
15:49 34.4 °C 17.7 °C 1011.1 hPa SE 25.9 km/h 25.9 km/h 37 % 0.0 mm 847.0 W/m2 CLR
15:54 34.7 °C 17.8 °C 1011.1 hPa SE 24.1 km/h 24.1 km/h 37 % 0.0 mm 840.0 W/m2 CLR
15:59 34.5 °C 17.7 °C 1011.1 hPa SE 29.6 km/h 29.6 km/h 37 % 0.0 mm 830.0 W/m2 CLR
16:04 34.3 °C 17.6 °C 1011.1 hPa SSE 29.6 km/h 29.6 km/h 37 % 0.0 mm 817.0 W/m2 CLR
16:10 34.7 °C 17.8 °C 1011.1 hPa SE 30.6 km/h 30.6 km/h 37 % 0.0 mm 802.0 W/m2 CLR
16:15 34.6 °C 17.7 °C 1011.1 hPa SE 29.0 km/h 29.0 km/h 37 % 0.0 mm 791.0 W/m2 CLR
16:20 34.6 °C 17.7 °C 1011.1 hPa South 24.1 km/h 24.1 km/h 37 % 0.0 mm 786.0 W/m2 CLR
16:25 34.6 °C 18.2 °C 1011.1 hPa ESE 29.6 km/h 29.6 km/h 38 % 0.0 mm 775.0 W/m2 CLR
16:30 34.7 °C 18.3 °C 1011.1 hPa SE 24.1 km/h 24.1 km/h 38 % 0.0 mm 765.0 W/m2 CLR
16:35 34.4 °C 18.0 °C 1011.1 hPa South 22.2 km/h 22.2 km/h 38 % 0.0 mm 765.0 W/m2 CLR
16:40 34.2 °C 17.8 °C 1011.1 hPa ESE 31.5 km/h 31.5 km/h 38 % 0.0 mm 752.0 W/m2 CLR
16:50 34.1 °C 17.7 °C 1011.1 hPa ESE 29.6 km/h 29.6 km/h 38 % 0.0 mm 729.0 W/m2 CLR
16:55 33.9 °C 18.0 °C 1011.1 hPa ESE 31.5 km/h 31.5 km/h 39 % 0.0 mm 719.0 W/m2 CLR
17:00 33.8 °C 17.9 °C 1011.1 hPa SE 27.4 km/h 27.4 km/h 39 % 0.0 mm 705.0 W/m2 CLR
17:05 33.9 °C 18.0 °C 1011.1 hPa ESE 22.5 km/h 22.5 km/h 39 % 0.0 mm 691.0 W/m2 CLR
17:10 34.0 °C 17.3 °C 1011.1 hPa SE 25.9 km/h 25.9 km/h 37 % 0.0 mm 679.0 W/m2 CLR
17:15 33.9 °C 17.2 °C 1011.1 hPa SE 25.9 km/h 25.9 km/h 37 % 0.0 mm 656.0 W/m2 CLR
17:20 33.7 °C 17.4 °C 1011.1 hPa SE 27.8 km/h 27.8 km/h 38 % 0.0 mm 645.0 W/m2 CLR
17:25 33.6 °C 17.3 °C 1011.1 hPa SSE 20.4 km/h 20.4 km/h 38 % 0.0 mm 636.0 W/m2 CLR
17:30 34.0 °C 16.8 °C 1011.1 hPa SE 25.9 km/h 25.9 km/h 36 % 0.0 mm 624.0 W/m2 CLR
17:35 33.9 °C 17.2 °C 1011.1 hPa ESE 25.9 km/h 25.9 km/h 37 % 0.0 mm 621.0 W/m2 CLR
17:40 33.9 °C 16.7 °C 1011.1 hPa SE 24.1 km/h 24.1 km/h 36 % 0.0 mm 606.0 W/m2 CLR
17:45 33.8 °C 16.7 °C 1011.1 hPa SSE 18.5 km/h 18.5 km/h 36 % 0.0 mm 587.0 W/m2 CLR
17:50 33.6 °C 16.5 °C 1011.1 hPa ESE 27.8 km/h 27.8 km/h 36 % 0.0 mm 577.0 W/m2 CLR
17:55 33.6 °C 16.5 °C 1011.1 hPa ESE 27.8 km/h 27.8 km/h 36 % 0.0 mm 563.0 W/m2 CLR
18:00 33.6 °C 16.5 °C 1011.1 hPa ESE 25.9 km/h 25.9 km/h 36 % 0.0 mm 548.0 W/m2 CLR
18:05 33.6 °C 16.5 °C 1011.1 hPa ESE 22.2 km/h 22.2 km/h 36 % 0.0 mm 536.0 W/m2 CLR
18:10 33.5 °C 16.4 °C 1011.1 hPa SE 33.3 km/h 33.3 km/h 36 % 0.0 mm 522.0 W/m2 CLR
18:15 33.6 °C 16.5 °C 1011.1 hPa ESE 24.1 km/h 24.1 km/h 36 % 0.0 mm 506.0 W/m2 CLR
18:20 33.5 °C 16.4 °C 1011.1 hPa SE 33.3 km/h 33.3 km/h 36 % 0.0 mm 494.0 W/m2 CLR
18:25 33.4 °C 16.3 °C 1011.1 hPa SE 27.8 km/h 27.8 km/h 36 % 0.0 mm 478.0 W/m2 CLR
18:30 33.3 °C 16.2 °C 1011.1 hPa SE 22.5 km/h 22.5 km/h 36 % 0.0 mm 464.0 W/m2 CLR
18:35 33.2 °C 16.5 °C 1011.4 hPa SE 27.8 km/h 27.8 km/h 37 % 0.0 mm 452.0 W/m2 CLR
18:40 33.1 °C 16.4 °C 1011.4 hPa SSE 22.5 km/h 22.5 km/h 37 % 0.0 mm 431.0 W/m2 CLR
18:45 32.8 °C 16.2 °C 1011.4 hPa ESE 29.6 km/h 29.6 km/h 37 % 0.0 mm 415.0 W/m2 CLR
18:50 32.7 °C 16.1 °C 1011.4 hPa SSE 27.8 km/h 27.8 km/h 37 % 0.0 mm 399.0 W/m2 CLR
18:55 32.7 °C 16.1 °C 1011.4 hPa ESE 25.9 km/h 25.9 km/h 37 % 0.0 mm 385.0 W/m2 CLR
19:00 32.6 °C 16.0 °C 1011.4 hPa ESE 22.2 km/h 22.2 km/h 37 % 0.0 mm 367.0 W/m2 CLR
19:05 32.4 °C 16.3 °C 1011.4 hPa SE 14.8 km/h 14.8 km/h 38 % 0.0 mm 352.0 W/m2 CLR
19:10 32.4 °C 16.2 °C 1011.7 hPa SSE 27.8 km/h 27.8 km/h 38 % 0.0 mm 338.0 W/m2 CLR
19:15 32.3 °C 16.2 °C 1011.7 hPa SSE 18.5 km/h 18.5 km/h 38 % 0.0 mm 322.0 W/m2 CLR
19:20 32.2 °C 16.4 °C 1011.7 hPa ESE 22.5 km/h 22.5 km/h 39 % 0.0 mm 306.0 W/m2 CLR
19:25 32.1 °C 16.4 °C 1011.7 hPa SE 20.4 km/h 20.4 km/h 39 % 0.0 mm 292.0 W/m2 CLR
19:30 32.0 °C 16.3 °C 1011.7 hPa SE 22.2 km/h 22.2 km/h 39 % 0.0 mm 278.0 W/m2 CLR
19:35 31.8 °C 16.2 °C 1011.7 hPa SSE 22.2 km/h 22.2 km/h 39 % 0.0 mm 264.0 W/m2 CLR
19:36 31.8 °C 16.2 °C 1011.7 hPa ESE 22.2 km/h 22.2 km/h 39 % 0.0 mm 260.0 W/m2 CLR
19:41 31.7 °C 16.4 °C 1011.7 hPa SE 20.4 km/h 20.4 km/h 40 % 0.0 mm 248.0 W/m2 CLR
19:46 31.6 °C 16.4 °C 1011.7 hPa SSE 20.9 km/h 20.9 km/h 40 % 0.0 mm 232.0 W/m2 CLR
19:51 31.6 °C 16.8 °C 1012.1 hPa SSE 13.0 km/h 13.0 km/h 41 % 0.0 mm 214.0 W/m2 CLR
19:56 31.5 °C 16.7 °C 1011.7 hPa ESE 18.5 km/h 18.5 km/h 41 % 0.0 mm 199.0 W/m2 CLR
20:01 31.4 °C 16.6 °C 1011.7 hPa SE 22.2 km/h 22.2 km/h 41 % 0.0 mm 183.0 W/m2 CLR
20:06 31.3 °C 16.4 °C 1012.1 hPa South 14.8 km/h 14.8 km/h 41 % 0.0 mm 167.0 W/m2 CLR
20:11 31.2 °C 16.3 °C 1012.1 hPa SE 18.5 km/h 18.5 km/h 41 % 0.0 mm 149.0 W/m2 CLR
20:16 31.1 °C 16.3 °C 1012.1 hPa SE 11.1 km/h 11.1 km/h 41 % 0.0 mm 134.0 W/m2 CLR
20:21 31.0 °C 15.8 °C 1012.1 hPa SE 18.5 km/h 18.5 km/h 40 % 0.0 mm 120.0 W/m2 CLR
20:26 30.8 °C 15.7 °C 1012.1 hPa SE 20.4 km/h 20.4 km/h 40 % 0.0 mm 104.0 W/m2 CLR
20:31 30.7 °C 15.9 °C 1012.1 hPa SE 9.3 km/h 9.3 km/h 41 % 0.0 mm 88.0 W/m2 CLR
20:36 30.6 °C 16.9 °C 1012.1 hPa ESE 16.7 km/h 16.7 km/h 44 % 0.0 mm 76.0 W/m2 FEW
20:41 30.1 °C 16.9 °C 1012.4 hPa SE 17.7 km/h 17.7 km/h 45 % 0.0 mm 65.0 W/m2 SCT
20:46 29.8 °C 16.9 °C 1012.4 hPa SE 16.7 km/h 16.7 km/h 46 % 0.0 mm 30.0 W/m2 BKN
20:51 29.6 °C 16.8 °C 1012.4 hPa SSE 20.4 km/h 20.4 km/h 46 % 0.0 mm 42.0 W/m2 BKN
20:56 29.4 °C 16.9 °C 1012.4 hPa SE 18.5 km/h 18.5 km/h 47 % 0.0 mm 33.0 W/m2 BKN
21:01 29.2 °C 16.7 °C 1012.4 hPa SE 16.7 km/h 16.7 km/h 47 % 0.0 mm 28.0 W/m2 BKN
21:06 29.1 °C 16.9 °C 1012.8 hPa SE 16.7 km/h 16.7 km/h 48 % 0.0 mm 21.0 W/m2 BKN
21:11 28.9 °C 16.8 °C 1012.8 hPa SE 18.5 km/h 18.5 km/h 48 % 0.0 mm 18.0 W/m2 BKN
21:16 28.7 °C 16.6 °C 1012.8 hPa SE 14.8 km/h 14.8 km/h 48 % 0.0 mm 14.0 W/m2 BKN
21:21 28.6 °C 16.8 °C 1012.8 hPa SE 9.3 km/h 9.3 km/h 49 % 0.0 mm 11.0 W/m2 BKN
21:26 28.4 °C 16.7 °C 1012.8 hPa SE 9.3 km/h 9.3 km/h 49 % 0.0 mm 9.0 W/m2 BKN
21:31 28.3 °C 16.6 °C 1012.8 hPa SE 13.0 km/h 13.0 km/h 49 % 0.0 mm 5.0 W/m2 OVC
21:36 28.1 °C 16.7 °C 1013.1 hPa SE 1.6 km/h 1.6 km/h 50 % 0.0 mm 0.0 W/m2 OVC
21:41 28.0 °C 16.6 °C 1013.1 hPa SE 9.3 km/h 9.3 km/h 50 % 0.0 mm 0.0 W/m2 OVC
21:42 27.9 °C 16.6 °C 1013.1 hPa SSE 9.3 km/h 9.3 km/h 50 % 0.0 mm 0.0 W/m2 OVC
21:47 27.8 °C 16.4 °C 1013.1 hPa Calm     50 % 0.0 mm 0.0 W/m2 CLR
21:52 27.7 °C 16.3 °C 1013.1 hPa SE 9.7 km/h 9.7 km/h 50 % 0.0 mm 0.0 W/m2 CLR
21:57 27.6 °C 16.2 °C 1013.4 hPa SSE 13.0 km/h 13.0 km/h 50 % 0.0 mm 0.0 W/m2 CLR
22:02 27.4 °C 15.7 °C 1013.4 hPa SE 14.8 km/h 14.8 km/h 49 % 0.0 mm 0.0 W/m2 CLR
22:07 27.3 °C 15.7 °C 1013.4 hPa SSE 11.1 km/h 11.1 km/h 49 % 0.0 mm 0.0 W/m2 CLR
22:12 27.2 °C 15.9 °C 1013.8 hPa SSE 11.1 km/h 11.1 km/h 50 % 0.0 mm 0.0 W/m2 CLR
22:17 27.1 °C 15.5 °C 1013.8 hPa SE 5.6 km/h 5.6 km/h 49 % 0.0 mm 0.0 W/m2 CLR
22:22 27.0 °C 15.4 °C 1013.8 hPa SE 5.6 km/h 5.6 km/h 49 % 0.0 mm 0.0 W/m2 CLR
22:27 26.9 °C 15.3 °C 1013.8 hPa SSE 9.3 km/h 9.3 km/h 49 % 0.0 mm 0.0 W/m2 CLR
22:32 26.8 °C 14.8 °C 1014.1 hPa SSE 7.4 km/h 7.4 km/h 48 % 0.0 mm 0.0 W/m2 CLR
22:37 26.7 °C 14.8 °C 1014.1 hPa SSE 13.0 km/h 13.0 km/h 48 % 0.0 mm 0.0 W/m2 CLR
22:42 26.7 °C 14.4 °C 1014.4 hPa SSE 14.8 km/h 14.8 km/h 47 % 0.0 mm 0.0 W/m2 CLR
22:47 26.7 °C 14.4 °C 1014.4 hPa SE 13.0 km/h 13.0 km/h 47 % 0.0 mm 0.0 W/m2 CLR
22:52 26.6 °C 14.3 °C 1014.4 hPa SSE 11.1 km/h 11.1 km/h 47 % 0.0 mm 0.0 W/m2 CLR
22:57 26.5 °C 13.9 °C 1014.4 hPa SSE 9.7 km/h 9.7 km/h 46 % 0.0 mm 0.0 W/m2 CLR
23:02 26.4 °C 13.8 °C 1014.8 hPa SSE 14.8 km/h 14.8 km/h 46 % 0.0 mm 0.0 W/m2 CLR
23:07 26.3 °C 13.8 °C 1014.8 hPa South 13.0 km/h 13.0 km/h 46 % 0.0 mm 0.0 W/m2 CLR
23:12 26.3 °C 13.7 °C 1014.8 hPa SSE 13.0 km/h 13.0 km/h 46 % 0.0 mm 0.0 W/m2 CLR
23:17 26.2 °C 13.3 °C 1014.8 hPa SE 18.5 km/h 18.5 km/h 45 % 0.0 mm 0.0 W/m2 CLR
23:22 26.2 °C 13.3 °C 1014.8 hPa SSE 9.7 km/h 9.7 km/h 45 % 0.0 mm 0.0 W/m2 CLR
23:27 26.1 °C 13.2 °C 1014.8 hPa SSE 13.0 km/h 13.0 km/h 45 % 0.0 mm 0.0 W/m2 CLR
23:32 26.0 °C 13.2 °C 1014.8 hPa SSE 14.8 km/h 14.8 km/h 45 % 0.0 mm 0.0 W/m2 CLR
23:37 25.8 °C 13.0 °C 1014.8 hPa SE 13.0 km/h 13.0 km/h 45 % 0.0 mm 0.0 W/m2 CLR
23:42 25.8 °C 13.3 °C 1015.1 hPa SSE 6.4 km/h 6.4 km/h 46 % 0.0 mm 0.0 W/m2 CLR
23:47 25.7 °C 13.2 °C 1014.8 hPa SSE 11.3 km/h 11.3 km/h 46 % 0.0 mm 0.0 W/m2 CLR
23:52 25.6 °C 13.1 °C 1015.1 hPa SSE 5.6 km/h 5.6 km/h 46 % 0.0 mm 0.0 W/m2 CLR
23:57 25.6 °C 13.1 °C 1014.8 hPa Calm     46 % 0.0 mm 0.0 W/m2 CLR
Lo Temps de Massalio
Compliments of Weather Underground - 1.25 mb